Time;durP1;ratioP1;P1;durP2;ratioP2;P2;SDS_P1;SDS_P2;PMS_P1;PMS_P2;Temp;Humidity;BMP_temperature;BMP_pressure;BME280_temperature;BME280_humidity;BME280_pressure;Samples;Min_cycle;Max_cycle;Signal;HPM_P1;HPM_P2
2022/05/15 00:01:24;;;;;;;7.73;7.03;;;16.10;99.90;;;;;;4992273;28;20512;-62
2022/05/15 00:03:50;;;;;;;7.23;6.10;;;15.80;99.90;;;;;;4991128;28;20450;-62
2022/05/15 00:06:16;;;;;;;8.83;8.13;;;15.70;99.90;;;;;;4991968;28;20180;-62
2022/05/15 00:08:41;;;;;;;7.80;7.20;;;15.70;99.90;;;;;;4992035;28;20435;-63
2022/05/15 00:11:08;;;;;;;6.60;5.93;;;15.60;99.90;;;;;;4994259;28;20226;-62
2022/05/15 00:13:34;;;;;;;6.27;5.60;;;15.70;99.90;;;;;;4992781;28;20601;-63
2022/05/15 00:16:00;;;;;;;8.70;6.70;;;15.60;99.90;;;;;;4992618;28;20439;-60
2022/05/15 00:18:26;;;;;;;9.10;6.80;;;15.90;99.90;;;;;;4993140;28;20270;-62
2022/05/15 00:20:52;;;;;;;8.13;7.53;;;15.60;99.90;;;;;;4993583;28;20207;-62
2022/05/15 00:23:20;;;;;;;8.93;8.00;;;15.60;99.90;;;;;;4990502;28;20469;-62
2022/05/15 00:25:46;;;;;;;8.73;7.83;;;15.50;99.90;;;;;;4988405;28;20187;-64
2022/05/15 00:28:13;;;;;;;8.67;7.97;;;15.50;99.90;;;;;;4992040;28;20443;-62
2022/05/15 00:30:39;;;;;;;8.80;8.00;;;15.50;99.90;;;;;;4990621;28;20443;-62
2022/05/15 00:33:05;;;;;;;9.00;8.10;;;15.60;99.90;;;;;;4991453;28;20537;-62
2022/05/15 00:35:30;;;;;;;7.80;6.90;;;15.60;99.90;;;;;;4990606;28;20605;-62
2022/05/15 00:37:56;;;;;;;6.97;6.33;;;15.50;99.90;;;;;;4992143;28;20187;-62
2022/05/15 00:40:23;;;;;;;9.23;7.70;;;15.50;99.90;;;;;;4989626;28;20196;-62
2022/05/15 00:42:49;;;;;;;8.83;8.13;;;15.50;99.90;;;;;;4992274;28;20616;-62
2022/05/15 00:45:16;;;;;;;7.70;7.10;;;15.40;99.90;;;;;;4991095;28;20446;-62
2022/05/15 00:47:42;;;;;;;7.70;7.00;;;15.40;99.90;;;;;;4990636;28;20437;-62
2022/05/15 00:50:15;;;;;;;6.67;6.10;;;15.40;99.90;;;;;;4991006;28;20513;-60
2022/05/15 00:52:43;;;;;;;7.40;6.70;;;15.40;99.90;;;;;;4986968;28;20184;-63
2022/05/15 00:55:22;;;;;;;6.60;6.03;;;15.30;99.90;;;;;;4987493;28;20479;-60
2022/05/15 00:57:52;;;;;;;6.77;6.00;;;15.30;99.90;;;;;;4988206;28;20456;-63
2022/05/15 01:00:23;;;;;;;9.90;9.00;;;15.20;99.90;;;;;;4990182;28;20471;-62
2022/05/15 01:03:12;;;;;;;14.33;11.57;;;15.20;99.90;;;;;;4992587;28;20446;-62
2022/05/15 01:05:43;;;;;;;10.30;9.30;;;15.20;99.90;;;;;;4987184;28;20434;-62
2022/05/15 01:08:09;;;;;;;8.90;8.10;;;15.30;99.90;;;;;;4990871;28;20943;-62
2022/05/15 01:10:37;;;;;;;9.53;8.63;;;15.20;99.90;;;;;;4988751;28;20430;-62
2022/05/15 01:13:04;;;;;;;8.30;7.50;;;15.20;99.90;;;;;;4991088;28;21150;-62
2022/05/15 01:15:30;;;;;;;8.53;7.83;;;15.20;99.90;;;;;;4984668;28;20531;-62
2022/05/15 01:17:56;;;;;;;7.97;7.10;;;15.20;99.90;;;;;;4987947;28;20443;-63
2022/05/15 01:20:25;;;;;;;7.40;6.70;;;15.10;99.90;;;;;;4990254;28;20500;-62
2022/05/15 01:22:52;;;;;;;8.73;7.00;;;15.20;99.90;;;;;;4990921;28;20443;-62
2022/05/15 01:25:20;;;;;;;7.47;6.77;;;15.10;99.90;;;;;;4988114;28;20846;-62
2022/05/15 01:28:00;;;;;;;6.67;5.97;;;15.00;99.90;;;;;;4990463;28;20442;-64
2022/05/15 01:30:26;;;;;;;7.10;6.57;;;15.10;99.90;;;;;;4988763;28;20516;-62
2022/05/15 01:32:52;;;;;;;6.33;5.73;;;14.90;99.90;;;;;;4989702;28;20450;-62
2022/05/15 01:35:17;;;;;;;5.93;5.43;;;15.00;99.90;;;;;;4990468;28;20439;-63
2022/05/15 01:37:43;;;;;;;6.40;5.90;;;14.90;99.90;;;;;;4988927;28;20218;-63
2022/05/15 01:40:09;;;;;;;6.63;6.03;;;15.00;99.90;;;;;;4990155;28;20562;-64
2022/05/15 01:42:36;;;;;;;7.30;5.83;;;15.00;99.90;;;;;;4990450;28;20186;-62
2022/05/15 01:45:02;;;;;;;7.93;6.90;;;15.00;99.90;;;;;;4989397;28;20466;-63
2022/05/15 01:47:27;;;;;;;7.03;6.43;;;15.00;99.90;;;;;;4991691;28;20449;-62
2022/05/15 01:49:53;;;;;;;7.67;7.07;;;14.90;99.90;;;;;;4985484;28;20614;-62
2022/05/15 01:52:18;;;;;;;6.57;6.03;;;14.80;99.90;;;;;;4989748;28;20225;-63
2022/05/15 01:54:44;;;;;;;6.53;5.77;;;14.70;99.90;;;;;;4988219;28;20334;-62
2022/05/15 01:57:09;;;;;;;6.33;5.83;;;14.70;99.90;;;;;;4990127;28;20250;-62
2022/05/15 01:59:35;;;;;;;6.93;6.23;;;14.80;99.90;;;;;;4988805;28;20203;-62
2022/05/15 02:02:00;;;;;;;6.80;6.20;;;14.90;99.90;;;;;;4990052;28;20207;-62
2022/05/15 02:04:26;;;;;;;7.30;5.73;;;14.90;99.90;;;;;;4989547;28;20195;-62
2022/05/15 02:06:51;;;;;;;5.47;4.97;;;15.00;99.90;;;;;;4991028;28;20187;-62
2022/05/15 02:09:17;;;;;;;7.27;5.23;;;15.00;99.90;;;;;;4985056;28;20553;-62
2022/05/15 02:11:42;;;;;;;8.20;7.07;;;14.90;99.90;;;;;;4989839;28;20184;-63
2022/05/15 02:14:08;;;;;;;7.20;6.13;;;14.80;99.90;;;;;;4991391;28;20700;-63
2022/05/15 02:16:34;;;;;;;5.60;5.10;;;14.80;99.90;;;;;;4987716;28;20190;-62
2022/05/15 02:18:59;;;;;;;6.90;6.30;;;14.80;99.90;;;;;;4990510;28;20176;-61
2022/05/15 02:21:25;;;;;;;6.70;6.10;;;14.80;99.90;;;;;;4987795;28;20676;-62
2022/05/15 02:23:51;;;;;;;9.20;6.47;;;14.80;99.90;;;;;;4990566;28;20203;-63
2022/05/15 02:26:17;;;;;;;7.37;5.47;;;14.70;99.90;;;;;;4988923;28;20183;-62
2022/05/15 02:28:43;;;;;;;7.17;6.57;;;14.70;99.90;;;;;;4988824;28;20176;-62
2022/05/15 02:31:08;;;;;;;7.87;5.80;;;14.70;99.90;;;;;;4990501;28;20449;-62
2022/05/15 02:33:34;;;;;;;6.60;6.00;;;14.70;99.90;;;;;;4984853;28;20250;-62
2022/05/15 02:36:00;;;;;;;6.23;5.63;;;14.70;99.90;;;;;;4988403;28;20188;-65
2022/05/15 02:38:26;;;;;;;9.10;5.77;;;14.60;99.90;;;;;;4989111;28;20274;-65
2022/05/15 02:40:52;;;;;;;9.10;5.00;;;14.60;99.90;;;;;;4988342;28;20554;-62
2022/05/15 02:43:17;;;;;;;8.30;6.30;;;14.70;99.90;;;;;;4984099;28;20283;-62
2022/05/15 02:45:43;;;;;;;5.70;5.20;;;14.70;99.90;;;;;;4989931;28;20186;-63
2022/05/15 02:51:03;;;;;;;5.60;5.10;;;14.60;99.90;;;;;;4986785;28;20560;-62
2022/05/15 02:51:03;;;;;;;6.27;5.67;;;14.60;99.90;;;;;;4989993;28;20188;-62
2022/05/15 02:53:30;;;;;;;5.70;5.27;;;14.50;99.90;;;;;;4988878;28;20527;-62
2022/05/15 02:55:55;;;;;;;6.07;5.47;;;14.50;99.90;;;;;;4988241;28;20442;-64
2022/05/15 02:58:21;;;;;;;6.07;5.47;;;14.50;99.90;;;;;;4989944;28;20438;-62
2022/05/15 03:00:46;;;;;;;5.13;4.73;;;14.50;99.90;;;;;;4988024;28;20219;-63
2022/05/15 03:03:12;;;;;;;5.93;5.27;;;14.40;99.90;;;;;;4982487;28;20275;-63
2022/05/15 03:05:37;;;;;;;6.07;5.53;;;14.40;99.90;;;;;;4988561;28;20183;-62
2022/05/15 03:08:03;;;;;;;5.93;4.60;;;14.40;99.90;;;;;;4994863;28;20203;-63
2022/05/15 03:10:29;;;;;;;5.90;5.30;;;14.30;99.90;;;;;;4992069;28;20176;-62
2022/05/15 03:12:55;;;;;;;6.20;5.70;;;14.20;99.90;;;;;;4992884;28;20644;-62
2022/05/15 03:15:21;;;;;;;6.53;4.70;;;14.90;99.90;;;;;;4992056;28;20184;-62
2022/05/15 03:17:46;;;;;;;5.77;5.07;;;14.20;99.90;;;;;;4992812;28;20275;-63
2022/05/15 03:20:14;;;;;;;7.07;4.70;;;14.10;99.90;;;;;;4991642;28;20515;-62
2022/05/15 03:22:40;;;;;;;5.30;4.80;;;14.20;99.90;;;;;;4991592;28;20176;-62
2022/05/15 03:25:06;;;;;;;5.73;5.23;;;14.30;99.90;;;;;;4985859;28;20458;-62
2022/05/15 03:27:32;;;;;;;5.97;4.47;;;14.10;99.90;;;;;;4992791;28;20194;-64
2022/05/15 03:29:58;;;;;;;5.50;4.93;;;14.10;99.90;;;;;;4991969;28;20821;-62
2022/05/15 03:32:23;;;;;;;7.20;5.47;;;14.10;99.90;;;;;;4990010;28;20184;-62
2022/05/15 03:34:49;;;;;;;6.70;4.90;;;14.10;99.90;;;;;;4991233;28;20230;-63
2022/05/15 03:37:14;;;;;;;5.40;4.63;;;14.10;99.90;;;;;;4993307;28;20186;-62
2022/05/15 03:39:40;;;;;;;7.47;5.13;;;14.00;99.90;;;;;;4990195;28;20543;-63
2022/05/15 03:42:06;;;;;;;5.27;4.87;;;14.00;99.90;;;;;;4993355;28;20684;-63
2022/05/15 03:44:31;;;;;;;5.30;4.80;;;14.00;99.90;;;;;;4987103;28;20206;-63
2022/05/15 03:46:57;;;;;;;6.17;5.60;;;13.90;99.90;;;;;;4992056;28;20182;-62
2022/05/15 03:49:22;;;;;;;5.60;5.00;;;14.00;99.90;;;;;;4991126;28;20657;-63
2022/05/15 03:51:48;;;;;;;6.27;5.13;;;13.90;99.90;;;;;;4992825;28;20628;-63
2022/05/15 03:54:14;;;;;;;6.00;4.50;;;13.90;99.90;;;;;;4993529;28;20327;-63
2022/05/15 03:56:52;;;;;;;5.37;4.87;;;13.80;99.90;;;;;;4993367;28;20262;-63
2022/05/15 03:59:31;;;;;;;6.03;5.53;;;13.90;99.90;;;;;;4991482;28;20305;-63
2022/05/15 04:01:57;;;;;;;5.17;4.67;;;13.90;99.90;;;;;;4992576;28;20943;-62
2022/05/15 04:04:22;;;;;;;6.37;5.37;;;13.80;99.90;;;;;;4991872;28;20465;-63
2022/05/15 04:06:48;;;;;;;7.10;4.03;;;13.90;99.90;;;;;;4989060;28;20426;-63
2022/05/15 04:09:14;;;;;;;5.37;4.70;;;14.00;99.90;;;;;;4991817;28;20222;-63
2022/05/15 04:11:40;;;;;;;7.70;7.00;;;14.00;99.90;;;;;;4993152;28;20657;-63
2022/05/15 04:14:06;;;;;;;5.73;4.73;;;14.10;99.90;;;;;;4993474;28;20304;-63
2022/05/15 04:16:32;;;;;;;8.20;4.80;;;14.10;99.90;;;;;;4991284;28;20180;-63
2022/05/15 04:18:58;;;;;;;6.63;5.33;;;14.10;99.90;;;;;;4993293;28;20818;-63
2022/05/15 04:21:23;;;;;;;7.73;5.00;;;14.10;99.90;;;;;;4991505;28;20689;-63
2022/05/15 04:23:49;;;;;;;7.23;4.60;;;14.00;99.90;;;;;;4993496;28;20971;-63
2022/05/15 04:26:14;;;;;;;6.60;6.03;;;13.90;99.90;;;;;;4992332;28;20242;-63
2022/05/15 04:28:41;;;;;;;7.73;5.10;;;14.00;99.90;;;;;;4993240;28;20203;-63
2022/05/15 04:31:07;;;;;;;5.03;4.40;;;14.00;99.90;;;;;;4991693;28;20179;-62
2022/05/15 04:33:34;;;;;;;6.57;4.80;;;14.10;99.90;;;;;;4992898;28;20493;-63
2022/05/15 04:35:59;;;;;;;6.80;5.50;;;14.30;99.90;;;;;;4990911;28;20262;-63
2022/05/15 04:38:25;;;;;;;5.43;4.80;;;14.30;99.90;;;;;;4993067;28;20533;-64
2022/05/15 04:40:52;;;;;;;5.60;5.10;;;14.30;99.90;;;;;;4991747;28;20485;-63
2022/05/15 04:43:17;;;;;;;4.80;3.83;;;14.20;99.90;;;;;;4991295;28;20197;-63
2022/05/15 04:45:43;;;;;;;5.77;5.17;;;14.20;99.90;;;;;;4988234;28;20443;-63
2022/05/15 04:48:10;;;;;;;5.63;4.47;;;14.30;99.90;;;;;;4990402;28;20180;-63
2022/05/15 04:50:37;;;;;;;5.00;4.50;;;14.30;99.90;;;;;;4990084;28;20180;-62
2022/05/15 04:53:04;;;;;;;4.50;4.10;;;14.40;99.90;;;;;;4992187;28;20858;-63
2022/05/15 04:55:29;;;;;;;4.80;4.13;;;14.50;99.90;;;;;;4990093;28;20430;-63
2022/05/15 04:57:55;;;;;;;5.30;4.80;;;14.50;99.90;;;;;;4991305;28;20975;-63
2022/05/15 05:00:20;;;;;;;6.60;4.30;;;14.60;99.90;;;;;;4990955;28;20210;-63
2022/05/15 05:02:46;;;;;;;4.67;4.37;;;14.80;99.90;;;;;;4990239;28;20199;-63
2022/05/15 05:05:12;;;;;;;5.70;5.17;;;14.80;99.90;;;;;;4988042;28;21077;-63
2022/05/15 05:07:38;;;;;;;5.20;4.70;;;14.80;99.90;;;;;;4991631;28;20191;-63
2022/05/15 05:10:06;;;;;;;9.77;5.47;;;14.90;99.90;;;;;;4991391;28;20446;-62
2022/05/15 05:12:31;;;;;;;5.13;4.77;;;14.90;99.90;;;;;;4986955;28;20786;-62
2022/05/15 05:14:58;;;;;;;7.30;5.30;;;15.00;99.90;;;;;;4988275;28;20450;-63
2022/05/15 05:17:24;;;;;;;6.27;5.77;;;15.10;99.90;;;;;;4990359;28;20183;-63
2022/05/15 05:19:49;;;;;;;6.20;5.63;;;15.20;99.90;;;;;;4990056;28;20549;-63
2022/05/15 05:22:15;;;;;;;6.30;5.40;;;15.30;99.90;;;;;;4988086;28;20852;-63
2022/05/15 05:24:40;;;;;;;7.93;6.20;;;15.40;99.90;;;;;;4990126;28;20703;-62
2022/05/15 05:27:06;;;;;;;6.97;6.30;;;15.60;99.90;;;;;;4990220;28;20190;-63
2022/05/15 05:29:32;;;;;;;5.53;5.07;;;15.70;99.90;;;;;;4991200;28;20188;-63
2022/05/15 05:31:57;;;;;;;6.53;5.93;;;15.80;99.90;;;;;;4991019;28;20222;-62
2022/05/15 05:34:23;;;;;;;6.90;6.40;;;15.90;99.90;;;;;;4990007;28;20200;-62
2022/05/15 05:36:49;;;;;;;6.27;5.67;;;16.10;99.90;;;;;;4988612;28;20190;-63
2022/05/15 05:39:14;;;;;;;7.00;5.77;;;16.20;99.90;;;;;;4990890;28;20537;-63
2022/05/15 05:41:40;;;;;;;8.40;6.53;;;16.30;99.90;;;;;;4990439;28;20441;-63
2022/05/15 05:44:05;;;;;;;5.97;5.47;;;16.50;99.90;;;;;;4990515;28;20210;-62
2022/05/15 05:46:31;;;;;;;6.73;6.20;;;16.70;99.90;;;;;;4989333;28;20529;-63
2022/05/15 05:48:57;;;;;;;6.30;5.70;;;16.90;99.90;;;;;;4988752;28;20533;-62
2022/05/15 05:51:23;;;;;;;6.13;4.67;;;17.20;99.90;;;;;;4988994;28;20179;-63
2022/05/15 05:53:48;;;;;;;8.00;5.33;;;17.40;99.90;;;;;;4989397;28;20486;-62
2022/05/15 05:56:14;;;;;;;7.50;5.80;;;17.50;99.90;;;;;;4989958;28;20439;-62
2022/05/15 05:58:40;;;;;;;7.47;5.17;;;17.60;99.90;;;;;;4989366;28;20189;-63
2022/05/15 06:01:06;;;;;;;5.77;4.80;;;17.60;99.90;;;;;;4989804;28;20477;-63
2022/05/15 06:06:16;;;;;;;5.23;4.83;;;17.70;99.90;;;;;;4990373;28;20265;-63
2022/05/15 06:08:42;;;;;;;5.43;5.03;;;17.90;99.90;;;;;;4987979;28;20522;-63
2022/05/15 06:11:08;;;;;;;4.97;4.23;;;18.10;99.90;;;;;;4986530;28;20191;-63
2022/05/15 06:13:34;;;;;;;5.57;4.20;;;18.30;99.90;;;;;;4990809;28;20477;-64
2022/05/15 06:16:00;;;;;;;4.97;3.73;;;18.30;99.90;;;;;;4986901;28;20963;-65
2022/05/15 06:18:26;;;;;;;6.20;4.37;;;18.20;99.90;;;;;;4990384;28;20191;-65
2022/05/15 06:20:51;;;;;;;4.87;4.40;;;18.20;99.90;;;;;;4990632;28;20208;-65
2022/05/15 06:23:18;;;;;;;5.13;4.73;;;18.40;99.90;;;;;;4988833;28;20226;-64
2022/05/15 06:25:44;;;;;;;4.37;3.97;;;18.50;99.90;;;;;;4987483;28;20271;-64
2022/05/15 06:28:09;;;;;;;8.80;4.17;;;18.70;99.90;;;;;;4990648;28;20873;-63
2022/05/15 06:30:36;;;;;;;5.23;3.13;;;18.90;99.90;;;;;;4984510;28;20538;-65
2022/05/15 06:33:03;;;;;;;4.20;3.80;;;19.20;99.90;;;;;;4984474;28;20183;-64
2022/05/15 06:35:28;;;;;;;6.87;4.00;;;19.30;99.90;;;;;;4986622;28;20474;-64
2022/05/15 06:37:54;;;;;;;3.90;3.57;;;19.50;99.90;;;;;;4989842;28;20463;-63
2022/05/15 06:40:19;;;;;;;3.60;3.30;;;19.80;99.90;;;;;;4991080;28;20550;-64
2022/05/15 06:42:46;;;;;;;3.93;3.33;;;19.80;99.90;;;;;;4991980;28;20564;-63
2022/05/15 06:45:12;;;;;;;3.40;3.10;;;19.80;99.90;;;;;;4991200;28;20200;-63
2022/05/15 06:47:38;;;;;;;3.87;3.40;;;19.70;99.90;;;;;;4995362;28;20931;-64
2022/05/15 06:50:08;;;;;;;6.13;4.50;;;19.60;99.90;;;;;;4994093;28;20500;-64
2022/05/15 06:52:36;;;;;;;7.87;3.97;;;19.40;99.90;;;;;;4993466;28;20179;-64
2022/05/15 06:55:06;;;;;;;3.50;3.20;;;19.60;99.90;;;;;;4993583;28;20481;-64
2022/05/15 06:57:33;;;;;;;3.93;3.60;;;19.80;99.90;;;;;;4993575;28;20487;-64
2022/05/15 07:00:01;;;;;;;4.63;3.17;;;20.00;99.90;;;;;;4991916;28;20462;-64
2022/05/15 07:02:28;;;;;;;4.90;3.17;;;20.10;99.90;;;;;;4995130;28;20505;-63
2022/05/15 07:04:53;;;;;;;4.60;3.00;;;20.30;99.10;;;;;;4983988;28;20463;-64
2022/05/15 07:07:19;;;;;;;3.70;3.40;;;20.50;98.70;;;;;;4989830;28;20438;-63
2022/05/15 07:09:45;;;;;;;3.23;2.93;;;20.70;98.30;;;;;;4994805;28;20187;-63
2022/05/15 07:12:11;;;;;;;4.20;2.73;;;20.90;96.40;;;;;;4990388;28;20190;-63
2022/05/15 07:14:37;;;;;;;3.20;2.70;;;21.10;96.20;;;;;;4993863;28;21041;-63
2022/05/15 07:17:03;;;;;;;6.20;3.03;;;20.90;96.60;;;;;;4994725;28;20183;-64
2022/05/15 07:19:29;;;;;;;4.70;3.23;;;21.00;96.60;;;;;;4994446;28;20446;-64
2022/05/15 07:21:54;;;;;;;3.93;3.30;;;21.10;97.50;;;;;;4994521;28;20501;-64
2022/05/15 07:24:22;;;;;;;4.60;3.27;;;21.30;97.80;;;;;;4993319;28;20204;-63
2022/05/15 07:26:49;;;;;;;4.30;4.00;;;21.60;96.80;;;;;;4993949;28;20188;-63
2022/05/15 07:29:15;;;;;;;5.60;3.13;;;21.80;97.30;;;;;;4994338;28;20442;-63
2022/05/15 07:31:41;;;;;;;3.40;3.10;;;22.00;96.20;;;;;;4994497;28;21031;-63
2022/05/15 07:34:07;;;;;;;4.37;3.97;;;22.30;95.50;;;;;;4994468;28;20549;-64
2022/05/15 07:36:33;;;;;;;3.50;3.20;;;22.30;95.50;;;;;;4993277;28;20223;-64
2022/05/15 07:38:59;;;;;;;3.37;3.10;;;22.60;95.90;;;;;;4993935;28;20253;-64
2022/05/15 07:41:25;;;;;;;4.10;3.40;;;22.90;94.60;;;;;;4993189;28;20463;-63
2022/05/15 07:43:50;;;;;;;4.90;3.20;;;22.90;94.60;;;;;;4992537;28;20290;-63
2022/05/15 07:46:16;;;;;;;5.43;3.13;;;22.90;94.40;;;;;;4992751;28;20541;-63
2022/05/15 07:48:41;;;;;;;3.67;2.57;;;22.90;93.20;;;;;;4993177;28;20183;-63
2022/05/15 07:51:07;;;;;;;4.80;3.33;;;23.00;92.30;;;;;;4991652;28;20180;-63
2022/05/15 07:53:33;;;;;;;4.30;3.20;;;23.20;92.80;;;;;;4992574;28;20219;-64
2022/05/15 07:56:09;;;;;;;3.90;2.93;;;23.50;92.80;;;;;;4993964;28;20223;-64
2022/05/15 07:58:36;;;;;;;4.70;3.43;;;23.80;92.50;;;;;;4992619;28;20189;-64
2022/05/15 08:01:04;;;;;;;4.20;3.27;;;24.00;91.80;;;;;;4992949;28;20510;-64
2022/05/15 08:03:37;;;;;;;4.40;3.17;;;24.00;91.50;;;;;;4990351;28;20952;-64
2022/05/15 08:08:48;;;;;;;3.80;2.97;;;24.50;90.10;;;;;;4991375;28;20530;-63
2022/05/15 08:11:13;;;;;;;4.13;3.27;;;24.70;89.50;;;;;;4984232;28;20992;-63
2022/05/15 08:13:39;;;;;;;3.17;2.87;;;24.90;87.70;;;;;;4989557;28;20203;-63
2022/05/15 08:16:04;;;;;;;3.50;3.20;;;25.20;87.50;;;;;;4987817;28;20196;-63
2022/05/15 08:24:01;;;;;;;4.53;3.60;;;25.50;85.80;;;;;;4991050;28;20465;-63
2022/05/15 08:26:27;;;;;;;7.30;3.60;;;25.60;84.00;;;;;;4992546;28;20449;-64
2022/05/15 08:28:54;;;;;;;4.60;3.13;;;25.50;83.40;;;;;;4991980;28;20439;-63
2022/05/15 08:31:21;;;;;;;3.70;3.10;;;25.60;84.20;;;;;;4986920;28;20942;-66
2022/05/15 08:33:47;;;;;;;5.10;3.40;;;25.50;83.70;;;;;;4992404;28;20469;-65
2022/05/15 08:36:13;;;;;;;3.30;3.00;;;25.70;82.20;;;;;;4993524;28;20443;-65
2022/05/15 08:38:39;;;;;;;7.00;4.27;;;25.90;82.60;;;;;;4992256;28;20439;-66
2022/05/15 08:41:26;;;;;;;3.50;3.20;;;26.10;81.80;;;;;;4992391;28;20957;-66
2022/05/15 08:44:04;;;;;;;4.10;3.30;;;26.20;80.10;;;;;;4991523;28;20709;-66
2022/05/15 08:46:46;;;;;;;3.47;3.23;;;26.40;81.00;;;;;;4993007;28;20815;-65
2022/05/15 08:49:26;;;;;;;5.03;4.30;;;26.70;79.20;;;;;;4987947;28;20434;-68
2022/05/15 08:52:00;;;;;;;5.13;2.83;;;26.80;77.60;;;;;;4991474;28;20913;-64
2022/05/15 08:54:26;;;;;;;4.70;3.17;;;27.00;75.80;;;;;;4992885;28;20470;-64
2022/05/15 08:56:52;;;;;;;5.50;2.97;;;27.00;76.00;;;;;;4991415;28;20439;-64
2022/05/15 08:59:33;;;;;;;3.53;3.20;;;27.20;75.50;;;;;;4989532;28;20434;-65
2022/05/15 09:02:00;;;;;;;4.17;3.10;;;27.30;75.70;;;;;;4985501;28;20684;-62
2022/05/15 09:04:29;;;;;;;5.97;3.10;;;27.30;73.00;;;;;;4991605;28;20496;-65
2022/05/15 09:07:25;;;;;;;3.63;3.30;;;27.10;73.20;;;;;;4988690;28;20446;-64
2022/05/15 09:10:11;;;;;;;3.27;3.00;;;27.20;72.00;;;;;;4992078;28;20438;-64
2022/05/15 09:12:37;;;;;;;4.03;2.47;;;27.20;72.60;;;;;;4991503;28;20508;-64
2022/05/15 09:15:19;;;;;;;3.70;3.27;;;27.40;72.60;;;;;;4992380;28;20497;-64
2022/05/15 09:18:00;;;;;;;3.57;3.27;;;27.40;71.40;;;;;;4990923;28;20542;-64
2022/05/15 09:20:26;;;;;;;3.20;2.57;;;27.60;70.60;;;;;;4986190;28;20451;-64
2022/05/15 09:23:26;;;;;;;3.17;2.87;;;27.70;69.00;;;;;;4990061;28;20497;-64
2022/05/15 09:26:09;;;;;;;7.17;2.90;;;27.80;68.70;;;;;;4991573;28;20550;-64
2022/05/15 09:28:47;;;;;;;4.77;2.43;;;28.00;68.50;;;;;;4989441;28;20446;-64
2022/05/15 09:31:42;;;;;;;4.00;2.67;;;28.00;68.50;;;;;;4990301;28;20442;-64
2022/05/15 09:34:19;;;;;;;3.60;3.30;;;28.20;69.20;;;;;;4981736;28;21059;-64
2022/05/15 09:36:45;;;;;;;6.00;2.83;;;28.30;67.70;;;;;;4991680;28;20439;-61
2022/05/15 09:39:20;;;;;;;3.40;3.10;;;28.40;67.10;;;;;;4989054;28;20474;-62
2022/05/15 09:45:19;;;;;;;2.60;2.40;;;28.50;66.30;;;;;;4990509;28;20480;-61
2022/05/15 09:48:01;;;;;;;3.80;2.80;;;28.70;65.60;;;;;;4992177;28;20449;-62
2022/05/15 09:50:46;;;;;;;3.47;2.67;;;28.60;63.50;;;;;;4984900;28;20506;-62
2022/05/15 09:53:36;;;;;;;3.23;2.80;;;28.50;62.60;;;;;;4984582;28;20478;-63
2022/05/15 09:56:01;;;;;;;3.60;2.97;;;28.70;62.60;;;;;;4991242;28;20446;-63
2022/05/15 09:58:44;;;;;;;2.87;2.00;;;28.80;62.30;;;;;;4991789;28;20447;-62
2022/05/15 10:01:35;;;;;;;5.30;3.10;;;28.50;59.90;;;;;;4991689;28;20257;-62
2022/05/15 10:04:07;;;;;;;3.30;3.00;;;28.10;60.80;;;;;;4977409;28;20473;-63
2022/05/15 10:06:37;;;;;;;3.90;2.67;;;28.10;62.00;;;;;;4991901;28;20528;-63
2022/05/15 10:09:22;;;;;;;3.30;3.10;;;28.40;60.90;;;;;;4990522;28;20439;-63
2022/05/15 10:11:58;;;;;;;4.10;3.07;;;28.60;60.80;;;;;;4988526;28;20435;-62
2022/05/15 10:14:34;;;;;;;2.63;2.40;;;28.30;59.40;;;;;;4983226;28;20454;-64
2022/05/15 10:17:00;;;;;;;3.50;2.37;;;28.50;58.20;;;;;;4991763;28;20492;-63
2022/05/15 10:19:36;;;;;;;3.00;2.70;;;28.50;58.80;;;;;;4990085;28;20446;-63
2022/05/15 10:22:22;;;;;;;10.03;4.00;;;28.50;58.40;;;;;;4989718;28;20473;-63
2022/05/15 10:24:48;;;;;;;3.20;2.90;;;28.70;57.90;;;;;;4989827;28;20481;-63
2022/05/15 10:27:31;;;;;;;4.63;3.50;;;29.00;57.90;;;;;;4991683;28;20434;-63
2022/05/15 10:30:19;;;;;;;2.90;2.67;;;28.90;57.60;;;;;;4988326;28;21086;-63
2022/05/15 10:32:51;;;;;;;4.67;2.70;;;28.70;58.30;;;;;;4991215;28;20434;-63
2022/05/15 10:35:24;;;;;;;3.43;2.87;;;29.60;58.60;;;;;;4988605;28;20442;-63
2022/05/15 10:38:06;;;;;;;2.33;2.23;;;29.00;58.40;;;;;;4991356;28;20458;-63
2022/05/15 10:41:08;;;;;;;4.43;2.07;;;29.00;58.40;;;;;;4986082;28;20454;-64
2022/05/15 10:43:50;;;;;;;2.90;2.70;;;28.90;56.50;;;;;;4973279;28;20466;-63
2022/05/15 10:46:26;;;;;;;2.60;2.33;;;28.70;56.80;;;;;;4990159;28;20434;-62
2022/05/15 10:49:05;;;;;;;2.53;2.33;;;28.40;57.60;;;;;;4991103;28;20796;-62
2022/05/15 10:51:52;;;;;;;3.00;2.70;;;28.20;57.90;;;;;;4991708;28;20466;-63
2022/05/15 10:57:56;;;;;;;4.70;2.70;;;28.50;58.60;;;;;;4990333;28;20444;-63
2022/05/15 11:00:37;;;;;;;2.97;2.67;;;28.90;57.70;;;;;;4965765;28;20461;-63
2022/05/15 11:03:50;;;;;;;2.87;2.63;;;28.90;56.10;;;;;;4990710;28;20434;-62
2022/05/15 11:06:30;;;;;;;4.07;3.23;;;28.60;56.30;;;;;;4966289;28;20462;-63
2022/05/15 11:09:21;;;;;;;4.10;3.03;;;28.70;56.80;;;;;;4991145;28;20430;-63
2022/05/15 11:11:59;;;;;;;4.70;3.90;;;28.50;54.80;;;;;;4989264;28;20469;-63
2022/05/15 11:14:48;;;;;;;3.90;3.50;;;28.60;55.90;;;;;;4991959;28;20453;-63
2022/05/15 11:17:16;;;;;;;3.27;3.00;;;28.50;56.30;;;;;;4988351;28;20433;-63
2022/05/15 11:19:45;;;;;;;4.07;3.57;;;28.60;54.90;;;;;;4988430;28;20437;-63
2022/05/15 11:22:26;;;;;;;6.03;2.90;;;28.70;54.90;;;;;;4983062;28;20494;-63
2022/05/15 11:25:13;;;;;;;4.63;4.17;;;29.00;54.90;;;;;;4990536;28;21039;-63
2022/05/15 11:28:19;;;;;;;2.93;2.70;;;29.00;55.20;;;;;;4994191;28;20965;-62
2022/05/15 11:30:47;;;;;;;3.10;2.90;;;29.30;54.60;;;;;;4911256;29;20442;-63
2022/05/15 11:33:50;;;;;;;3.90;3.00;;;29.50;54.20;;;;;;4977865;28;20486;-62
2022/05/15 11:36:21;;;;;;;4.43;2.83;;;29.40;54.30;;;;;;4987086;28;20449;-63
2022/05/15 11:39:02;;;;;;;3.10;2.80;;;29.40;53.90;;;;;;4994057;28;20445;-63
2022/05/15 11:41:34;;;;;;;3.30;3.00;;;29.60;54.00;;;;;;4992866;28;20454;-63
2022/05/15 11:44:00;;;;;;;4.07;3.40;;;29.30;53.10;;;;;;4994027;28;20494;-63
2022/05/15 11:46:44;;;;;;;2.70;2.50;;;29.30;53.90;;;;;;4993120;28;20439;-63
2022/05/15 11:49:22;;;;;;;4.20;3.37;;;29.20;54.20;;;;;;4993788;28;20430;-63
2022/05/15 11:52:19;;;;;;;3.97;3.17;;;29.10;54.10;;;;;;4989625;28;20449;-63
2022/05/15 11:54:48;;;;;;;4.20;2.77;;;28.90;54.10;;;;;;4974280;28;20466;-63
2022/05/15 11:57:42;;;;;;;8.53;3.90;;;29.20;54.30;;;;;;4990440;28;20446;-62
2022/05/15 12:00:19;;;;;;;6.70;2.90;;;29.30;54.10;;;;;;4993273;28;20462;-63
2022/05/15 12:02:52;;;;;;;2.50;2.40;;;29.40;53.50;;;;;;4992914;28;20438;-63
2022/05/15 12:05:25;;;;;;;4.30;3.60;;;29.60;54.30;;;;;;4990226;28;20497;-62
2022/05/15 12:07:57;;;;;;;2.90;2.70;;;29.80;54.80;;;;;;4991170;28;20427;-63
2022/05/15 12:10:34;;;;;;;3.00;2.80;;;29.70;54.10;;;;;;4992628;28;20430;-63
2022/05/15 12:13:03;;;;;;;3.20;2.90;;;29.80;54.10;;;;;;4993756;28;20457;-64
2022/05/15 12:15:41;;;;;;;7.73;3.13;;;29.90;53.80;;;;;;4991908;28;20438;-62
2022/05/15 12:18:26;;;;;;;2.93;2.60;;;29.80;54.10;;;;;;4993475;28;20961;-63
2022/05/15 12:20:52;;;;;;;3.60;2.93;;;30.10;54.00;;;;;;4990565;28;20508;-62
2022/05/15 12:23:24;;;;;;;4.33;3.30;;;30.50;53.70;;;;;;4993010;28;20470;-63
2022/05/15 12:26:01;;;;;;;3.27;2.97;;;30.20;54.00;;;;;;4993644;28;20517;-63
2022/05/15 12:28:50;;;;;;;2.97;2.77;;;30.20;53.50;;;;;;4993390;28;20524;-63
2022/05/15 12:31:24;;;;;;;3.37;3.07;;;30.30;52.70;;;;;;4989465;28;20575;-64
2022/05/15 12:33:50;;;;;;;3.23;2.93;;;30.30;52.90;;;;;;4990557;28;20465;-63
2022/05/15 12:36:24;;;;;;;2.90;2.70;;;30.30;53.30;;;;;;4993056;28;20439;-63
2022/05/15 12:38:54;;;;;;;3.60;3.00;;;30.60;52.60;;;;;;4992223;28;20963;-63
2022/05/15 12:41:36;;;;;;;3.70;2.90;;;30.90;53.50;;;;;;4992707;28;20971;-63
2022/05/15 12:44:05;;;;;;;2.83;2.57;;;30.90;53.30;;;;;;4991922;28;20466;-63
2022/05/15 12:46:37;;;;;;;4.57;3.73;;;30.90;52.70;;;;;;4992570;28;20430;-63
2022/05/15 12:49:05;;;;;;;4.20;3.77;;;31.20;53.50;;;;;;4992702;28;20963;-63
2022/05/15 12:51:36;;;;;;;2.83;2.60;;;31.20;52.90;;;;;;4991221;28;20430;-63
2022/05/15 12:54:19;;;;;;;3.40;3.20;;;31.20;52.50;;;;;;4992863;28;20477;-62
2022/05/15 12:56:45;;;;;;;5.57;5.17;;;31.50;52.50;;;;;;4993186;28;20493;-63
2022/05/15 12:59:18;;;;;;;5.13;3.50;;;31.80;52.40;;;;;;4992889;28;20958;-63
2022/05/15 13:01:46;;;;;;;3.70;3.33;;;32.00;52.40;;;;;;4992061;28;20462;-65
2022/05/15 13:04:26;;;;;;;2.87;2.63;;;32.40;53.00;;;;;;4984749;28;20458;-63
2022/05/15 13:06:56;;;;;;;3.40;2.50;;;33.10;52.10;;;;;;4992988;28;21018;-63
2022/05/15 13:09:28;;;;;;;3.57;2.40;;;33.30;52.30;;;;;;4992743;28;20617;-63
2022/05/15 13:12:00;;;;;;;3.13;2.93;;;33.40;51.60;;;;;;4992275;28;20429;-64
2022/05/15 13:14:35;;;;;;;4.77;3.33;;;33.60;52.30;;;;;;4992656;28;20663;-64
2022/05/15 13:17:03;;;;;;;3.13;2.93;;;33.90;51.00;;;;;;4991744;28;20434;-64
2022/05/15 13:19:37;;;;;;;4.20;2.93;;;33.30;52.00;;;;;;4991800;28;20847;-63